Time;durP1;ratioP1;P1;durP2;ratioP2;P2;SDS_P1;SDS_P2;PMS_P1;PMS_P2;Temp;Humidity;BMP_temperature;BMP_pressure;BME280_temperature;BME280_humidity;BME280_pressure;Samples;Min_cycle;Max_cycle;Signal;HPM_P1;HPM_P2
2022/12/26 00:03:41;;;;;;;27.25;13.25;;;7.00;99.90;;;;;;21024146;28;20278;-76
2022/12/26 00:13:43;;;;;;;32.63;13.50;;;6.90;99.90;;;;;;21023943;28;20027;-75
2022/12/26 00:23:45;;;;;;;31.05;12.55;;;7.00;99.90;;;;;;21029665;28;20475;-75
2022/12/26 00:33:47;;;;;;;35.20;13.45;;;7.00;99.90;;;;;;21124169;28;20035;-76
2022/12/26 00:43:48;;;;;;;32.72;13.23;;;6.80;99.90;;;;;;21166229;28;20032;-76
2022/12/26 00:53:49;;;;;;;24.90;12.15;;;6.80;99.90;;;;;;21147880;28;20028;-76
2022/12/26 01:03:50;;;;;;;32.67;13.77;;;6.80;99.90;;;;;;21081678;28;20042;-75
2022/12/26 01:13:51;;;;;;;29.23;12.55;;;6.70;99.90;;;;;;21064047;28;20551;-75
2022/12/26 01:23:52;;;;;;;26.10;12.40;;;6.60;99.90;;;;;;21060837;28;20110;-76
2022/12/26 01:33:52;;;;;;;27.27;12.57;;;6.60;99.90;;;;;;21058230;28;20282;-76
2022/12/26 01:43:55;;;;;;;;;;;6.70;99.90;;;;;;21029186;28;20031;-75
2022/12/26 01:53:58;;;;;;;35.67;13.52;;;6.60;99.90;;;;;;20993407;28;19912;-75
2022/12/26 02:14:23;;;;;;;31.70;13.85;;;6.60;99.90;;;;;;21074601;28;20028;-75
2022/12/26 02:24:33;;;;;;;28.67;12.43;;;6.60;99.90;;;;;;21075115;28;20039;-75
2022/12/26 02:35:02;;;;;;;29.20;12.20;;;6.60;99.90;;;;;;21056337;28;20038;-75
2022/12/26 03:27:04;;;;;;;26.63;11.88;;;6.30;99.90;;;;;;21109373;28;20127;-75
2022/12/26 03:37:26;;;;;;;30.80;13.00;;;6.30;99.90;;;;;;21150848;28;20513;-75
2022/12/26 04:19:25;;;;;;;31.25;12.32;;;6.10;99.90;;;;;;20997882;28;20071;-79
2022/12/26 04:50:12;;;;;;;21.48;10.05;;;6.20;99.90;;;;;;20977638;28;20380;-79
2022/12/26 05:00:13;;;;;;;24.58;10.32;;;6.30;99.90;;;;;;20916183;28;20103;-79
2022/12/26 05:10:25;;;;;;;24.35;10.82;;;6.30;99.90;;;;;;20979960;28;20042;-78
2022/12/26 05:30:45;;;;;;;20.40;8.52;;;6.30;99.90;;;;;;21010871;28;20033;-79
2022/12/26 05:40:46;;;;;;;;;;;6.10;99.90;;;;;;20993850;28;20028;-79
2022/12/26 05:50:47;;;;;;;30.20;12.30;;;6.30;99.90;;;;;;21076365;28;19908;-79
2022/12/26 06:00:47;;;;;;;30.63;13.82;;;6.30;99.90;;;;;;21092141;28;20058;-79
2022/12/26 06:10:48;;;;;;;19.57;9.27;;;6.30;99.90;;;;;;21036839;28;20036;-79
2022/12/26 06:20:49;;;;;;;25.00;10.30;;;6.40;99.90;;;;;;21076207;28;20043;-80
2022/12/26 06:30:51;;;;;;;23.10;9.77;;;6.50;99.90;;;;;;21090188;28;20553;-80
2022/12/26 06:40:51;;;;;;;15.98;7.70;;;6.60;99.90;;;;;;21038628;28;20290;-80
2022/12/26 06:50:55;;;;;;;19.47;9.47;;;6.70;99.90;;;;;;21023567;28;20031;-80
2022/12/26 07:01:05;;;;;;;16.23;7.18;;;6.70;99.90;;;;;;21022525;28;20361;-80
2022/12/26 07:11:13;;;;;;;21.52;9.32;;;6.60;99.90;;;;;;21023251;28;20047;-80
2022/12/26 07:21:15;;;;;;;21.80;9.27;;;6.80;99.90;;;;;;21001507;28;20032;-80
2022/12/26 07:31:18;;;;;;;15.60;7.50;;;7.00;99.90;;;;;;21017874;28;20101;-80
2022/12/26 07:51:39;;;;;;;10.95;6.00;;;6.90;99.90;;;;;;20980657;28;20493;-80
2022/12/26 08:01:41;;;;;;;13.75;7.68;;;7.00;99.90;;;;;;20999786;28;20027;-80
2022/12/26 08:11:42;;;;;;;16.40;8.00;;;7.10;99.90;;;;;;20996764;28;20027;-81
2022/12/26 08:21:43;;;;;;;16.52;8.13;;;7.40;99.90;;;;;;20991592;28;20029;-79
2022/12/26 08:31:44;;;;;;;13.50;7.07;;;7.60;99.90;;;;;;20959097;28;20116;-79
2022/12/26 08:41:45;;;;;;;19.93;10.50;;;7.80;99.90;;;;;;20957807;28;20023;-79
2022/12/26 08:51:46;;;;;;;20.03;9.10;;;7.80;99.90;;;;;;20988021;28;20036;-79
2022/12/26 09:01:46;;;;;;;20.20;9.80;;;7.60;99.90;;;;;;20970665;28;20021;-79
2022/12/26 09:11:47;;;;;;;17.70;7.75;;;7.40;99.90;;;;;;20997715;28;20041;-80
2022/12/26 09:22:49;;;;;;;23.00;11.33;;;7.50;99.90;;;;;;21072262;28;20035;-79
2022/12/26 09:32:10;;;;;;;;;;;7.50;99.90;;;;;;21064378;28;20036;-79
2022/12/26 09:42:29;;;;;;;20.37;10.57;;;7.40;99.90;;;;;;21019849;28;19977;-80
2022/12/26 09:52:42;;;;;;;18.88;8.77;;;7.50;99.90;;;;;;21024219;22;20303;-77
2022/12/26 10:02:48;;;;;;;25.52;11.55;;;7.60;99.90;;;;;;20958080;28;20127;-76
2022/12/26 10:13:10;;;;;;;31.55;13.52;;;7.70;99.90;;;;;;20990432;28;20058;-77
2022/12/26 10:23:31;;;;;;;27.60;12.87;;;7.70;99.90;;;;;;20991532;28;20491;-76
2022/12/26 10:33:46;;;;;;;28.20;13.18;;;7.70;99.90;;;;;;20975217;28;20283;-76
2022/12/26 10:43:47;;;;;;;25.25;12.00;;;7.90;99.90;;;;;;20888745;28;20044;-77
2022/12/26 10:53:51;;;;;;;27.57;12.83;;;8.30;99.90;;;;;;20983490;28;20059;-77
2022/12/26 11:03:57;;;;;;;27.70;14.25;;;8.50;99.90;;;;;;20960776;28;20332;-77
2022/12/26 11:14:00;;;;;;;25.40;12.30;;;8.70;99.90;;;;;;20989581;28;20510;-77
2022/12/26 11:24:14;;;;;;;17.88;8.48;;;8.90;99.90;;;;;;20988732;28;20032;-77
2022/12/26 11:34:44;;;;;;;10.55;5.95;;;9.10;99.90;;;;;;20968581;28;20560;-77
2022/12/26 11:44:51;;;;;;;13.85;6.10;;;9.30;99.90;;;;;;20942952;28;20027;-77
2022/12/26 11:54:52;;;;;;;10.18;6.53;;;9.20;99.90;;;;;;20992271;28;20529;-78
2022/12/26 12:05:11;;;;;;;11.32;5.30;;;9.20;99.90;;;;;;20955090;28;20040;-78
2022/12/26 12:15:19;;;;;;;10.77;5.32;;;9.20;99.90;;;;;;20965264;28;20029;-77
2022/12/26 12:25:29;;;;;;;7.88;4.88;;;9.30;99.90;;;;;;20940627;28;20505;-77
2022/12/26 12:35:40;;;;;;;20.77;9.82;;;9.30;99.90;;;;;;20938681;28;20187;-76
2022/12/26 12:45:46;;;;;;;18.93;5.93;;;9.30;99.90;;;;;;20917222;28;20029;-77
2022/12/26 12:55:50;;;;;;;8.32;4.50;;;9.30;99.90;;;;;;20918232;28;20090;-78
2022/12/26 13:06:03;;;;;;;8.10;4.45;;;9.30;99.90;;;;;;20930603;28;20032;-76
2022/12/26 13:16:16;;;;;;;15.52;6.05;;;9.20;99.90;;;;;;20955920;28;20041;-78
2022/12/26 13:26:21;;;;;;;10.70;4.60;;;9.20;99.90;;;;;;20909001;28;20025;-78
2022/12/26 13:36:36;;;;;;;25.80;10.48;;;9.20;99.90;;;;;;20912614;28;20036;-78
2022/12/26 13:46:55;;;;;;;14.32;8.27;;;9.10;99.90;;;;;;20958658;28;20474;-79
2022/12/26 13:57:14;;;;;;;13.55;7.30;;;9.10;99.90;;;;;;20998409;28;20028;-78
2022/12/26 14:07:36;;;;;;;14.02;8.18;;;9.00;99.90;;;;;;20979475;28;20036;-80
2022/12/26 14:18:08;;;;;;;24.80;14.48;;;9.00;99.90;;;;;;20995793;28;20067;-79
2022/12/26 14:28:42;;;;;;;18.73;9.43;;;8.90;99.90;;;;;;20978802;28;20051;-79
2022/12/26 14:38:48;;;;;;;28.27;14.35;;;9.00;99.90;;;;;;20944486;28;20090;-79
2022/12/26 14:48:53;;;;;;;14.00;7.10;;;8.90;99.90;;;;;;20976062;28;20100;-78
2022/12/26 14:59:27;;;;;;;13.18;6.30;;;8.90;99.90;;;;;;20974855;28;20513;-79
2022/12/26 15:09:52;;;;;;;11.85;7.10;;;8.90;99.90;;;;;;20987352;28;20036;-79
2022/12/26 15:20:11;;;;;;;4.75;3.10;;;8.80;99.90;;;;;;20990927;28;20474;-79
2022/12/26 15:30:22;;;;;;;5.13;2.60;;;8.90;99.90;;;;;;20991683;28;20123;-77
2022/12/26 15:40:26;;;;;;;17.35;9.25;;;8.90;99.90;;;;;;20973775;28;20405;-77
2022/12/26 15:50:44;;;;;;;4.75;2.63;;;8.80;99.90;;;;;;20992130;28;20029;-78
2022/12/26 16:00:52;;;;;;;9.18;5.00;;;8.80;99.90;;;;;;20927172;22;20119;-78
2022/12/26 16:11:13;;;;;;;6.43;3.28;;;8.80;99.90;;;;;;20906118;28;20044;-77
2022/12/26 16:31:38;;;;;;;4.68;2.92;;;8.70;99.90;;;;;;20837892;28;20124;-77
2022/12/26 16:42:06;;;;;;;8.35;3.58;;;8.80;99.90;;;;;;20836258;28;20033;-77
2022/12/26 16:52:25;;;;;;;6.53;4.50;;;8.80;99.90;;;;;;20804866;28;20073;-77
2022/12/26 17:02:32;;;;;;;5.57;3.30;;;8.80;99.90;;;;;;20796549;28;20037;-78
2022/12/26 17:12:36;;;;;;;5.72;2.92;;;8.80;99.90;;;;;;20789819;28;20053;-77
2022/12/26 17:22:36;;;;;;;5.32;3.33;;;8.80;99.90;;;;;;20787559;28;20483;-77
2022/12/26 17:32:45;;;;;;;4.93;2.30;;;8.80;99.90;;;;;;20787942;28;20041;-77
2022/12/26 17:42:49;;;;;;;7.18;3.35;;;8.80;99.90;;;;;;20787957;28;20408;-76
2022/12/26 17:52:50;;;;;;;3.50;2.38;;;8.80;99.90;;;;;;20778259;28;20642;-77
2022/12/26 18:02:51;;;;;;;7.35;2.10;;;8.90;99.90;;;;;;20790240;28;20506;-78
2022/12/26 18:12:51;;;;;;;6.73;2.53;;;8.90;99.90;;;;;;20790171;28;20029;-78
2022/12/26 18:22:53;;;;;;;7.80;4.13;;;8.90;99.90;;;;;;20767754;28;20064;-77
2022/12/26 18:32:54;;;;;;;11.30;4.53;;;8.80;99.90;;;;;;20754668;28;20109;-77
2022/12/26 18:42:54;;;;;;;9.70;5.10;;;8.80;99.90;;;;;;20780405;28;20506;-78
2022/12/26 18:52:56;;;;;;;16.50;7.10;;;8.90;99.90;;;;;;20775753;28;20038;-78
2022/12/26 19:02:56;;;;;;;7.47;2.80;;;8.60;99.90;;;;;;20778794;28;20423;-79
2022/12/26 19:13:03;;;;;;;2.90;1.43;;;8.70;99.90;;;;;;20798649;28;20029;-78
2022/12/26 19:23:04;;;;;;;4.20;1.48;;;9.20;99.90;;;;;;20835626;28;20048;-78
2022/12/26 19:33:04;;;;;;;3.23;0.97;;;9.40;99.90;;;;;;20886353;28;20038;-77
2022/12/26 19:43:05;;;;;;;2.03;0.73;;;9.80;99.90;;;;;;20774035;28;20107;-76
2022/12/26 19:53:06;;;;;;;1.60;0.50;;;9.90;99.90;;;;;;20806881;28;20084;-77
2022/12/26 20:03:07;;;;;;;1.27;0.70;;;10.00;99.90;;;;;;20765964;28;20052;-78
2022/12/26 20:13:08;;;;;;;0.70;0.40;;;9.60;99.90;;;;;;20779806;28;20064;-77
2022/12/26 20:23:08;;;;;;;0.70;0.40;;;9.30;99.90;;;;;;20836054;28;20082;-78
2022/12/26 20:33:09;;;;;;;1.17;0.50;;;9.00;99.90;;;;;;20831864;28;20034;-78
2022/12/26 20:43:10;;;;;;;3.53;1.37;;;8.70;99.90;;;;;;20810810;28;20080;-77
2022/12/26 20:53:11;;;;;;;0.67;0.40;;;8.60;99.90;;;;;;20797180;28;20037;-78
2022/12/26 21:03:13;;;;;;;1.00;0.60;;;8.50;99.90;;;;;;20804466;28;20040;-78
2022/12/26 21:13:14;;;;;;;3.75;0.98;;;8.40;99.90;;;;;;20802936;28;20072;-78
2022/12/26 21:23:17;;;;;;;0.88;0.60;;;8.40;99.90;;;;;;20888891;28;20069;-77
2022/12/26 21:33:18;;;;;;;1.97;0.87;;;8.40;99.90;;;;;;20861901;28;20038;-77
2022/12/26 21:43:19;;;;;;;1.63;0.90;;;8.40;99.90;;;;;;20838168;28;20399;-78
2022/12/26 21:53:20;;;;;;;1.35;1.00;;;8.50;99.90;;;;;;20908681;22;20035;-78
2022/12/26 22:13:41;;;;;;;1.25;0.73;;;8.50;99.90;;;;;;21112018;27;20295;-76
2022/12/26 22:23:43;;;;;;;1.58;0.95;;;8.50;99.90;;;;;;21245591;27;20042;-79
2022/12/26 22:33:44;;;;;;;3.65;1.17;;;8.50;99.90;;;;;;21245430;27;20039;-78
2022/12/26 22:43:45;;;;;;;4.73;1.27;;;8.40;99.90;;;;;;21226483;27;20031;-78
2022/12/26 22:53:46;;;;;;;3.72;1.13;;;8.40;99.90;;;;;;21181802;27;20024;-77
2022/12/26 23:03:48;;;;;;;5.20;1.30;;;8.30;99.90;;;;;;21076157;28;20082;-79
2022/12/26 23:13:49;;;;;;;1.95;1.20;;;8.20;99.90;;;;;;21130687;28;20031;-78
2022/12/26 23:23:50;;;;;;;3.25;1.30;;;8.10;99.90;;;;;;21162084;28;20432;-79
2022/12/26 23:33:51;;;;;;;5.77;0.90;;;8.00;99.90;;;;;;21156560;28;20093;-79
2022/12/26 23:43:52;;;;;;;3.23;0.70;;;7.80;99.90;;;;;;21175217;27;20511;-79
2022/12/26 23:53:52;;;;;;;0.57;0.50;;;7.70;99.90;;;;;;21150778;27;20107;-78
